sensor_id;sensor_type;location;lat;lon;timestamp;P1;durP1;ratioP1;P2;durP2;ratioP2
15408;SDS011;7803;48.130;13.788;2023-02-12T05:35:27;10.95;;;9.85;;
15408;SDS011;7803;48.130;13.788;2023-02-12T05:38:29;10.75;;;9.68;;
15408;SDS011;7803;48.130;13.788;2023-02-12T05:41:32;11.05;;;9.95;;
15408;SDS011;7803;48.130;13.788;2023-02-12T05:44:34;10.48;;;9.48;;
15408;SDS011;7803;48.130;13.788;2023-02-12T05:47:37;10.85;;;9.80;;
15408;SDS011;7803;48.130;13.788;2023-02-12T05:50:40;10.48;;;9.38;;
15408;SDS011;7803;48.130;13.788;2023-02-12T05:53:42;10.70;;;9.60;;
15408;SDS011;7803;48.130;13.788;2023-02-12T05:56:45;9.65;;;8.75;;
15408;SDS011;7803;48.130;13.788;2023-02-12T05:59:48;10.15;;;9.15;;
15408;SDS011;7803;48.130;13.788;2023-02-12T06:02:50;9.85;;;8.95;;
15408;SDS011;7803;48.130;13.788;2023-02-12T06:05:53;10.55;;;9.48;;
15408;SDS011;7803;48.130;13.788;2023-02-12T06:08:55;9.80;;;8.90;;
15408;SDS011;7803;48.130;13.788;2023-02-12T06:11:58;9.80;;;8.80;;
15408;SDS011;7803;48.130;13.788;2023-02-12T06:15:00;9.60;;;8.70;;
15408;SDS011;7803;48.130;13.788;2023-02-12T06:18:02;9.93;;;8.95;;
15408;SDS011;7803;48.130;13.788;2023-02-12T06:21:06;9.95;;;9.00;;
15408;SDS011;7803;48.130;13.788;2023-02-12T06:24:08;9.82;;;8.55;;
15408;SDS011;7803;48.130;13.788;2023-02-12T06:27:12;9.23;;;8.32;;
15408;SDS011;7803;48.130;13.788;2023-02-12T06:30:14;9.55;;;8.30;;
15408;SDS011;7803;48.130;13.788;2023-02-12T06:33:16;9.02;;;8.05;;
15408;SDS011;7803;48.130;13.788;2023-02-12T06:36:20;8.93;;;8.13;;
15408;SDS011;7803;48.130;13.788;2023-02-12T06:39:22;8.90;;;8.00;;
15408;SDS011;7803;48.130;13.788;2023-02-12T06:42:24;8.55;;;7.75;;
15408;SDS011;7803;48.130;13.788;2023-02-12T06:45:27;9.18;;;8.13;;
15408;SDS011;7803;48.130;13.788;2023-02-12T06:48:29;8.43;;;7.60;;
15408;SDS011;7803;48.130;13.788;2023-02-12T06:51:32;8.63;;;7.82;;
15408;SDS011;7803;48.130;13.788;2023-02-12T06:54:35;8.23;;;7.43;;
15408;SDS011;7803;48.130;13.788;2023-02-12T06:57:37;8.25;;;7.45;;
15408;SDS011;7803;48.130;13.788;2023-02-12T07:00:39;8.23;;;7.43;;
15408;SDS011;7803;48.130;13.788;2023-02-12T07:03:41;7.90;;;7.10;;
15408;SDS011;7803;48.130;13.788;2023-02-12T07:06:46;7.72;;;6.93;;
15408;SDS011;7803;48.130;13.788;2023-02-12T07:09:48;7.95;;;7.20;;
15408;SDS011;7803;48.130;13.788;2023-02-12T07:12:50;7.85;;;7.05;;
15408;SDS011;7803;48.130;13.788;2023-02-12T07:15:52;7.72;;;7.03;;
15408;SDS011;7803;48.130;13.788;2023-02-12T07:18:54;9.95;;;7.38;;
15408;SDS011;7803;48.130;13.788;2023-02-12T07:21:58;7.60;;;6.90;;
15408;SDS011;7803;48.130;13.788;2023-02-12T07:25:00;7.57;;;6.88;;
15408;SDS011;7803;48.130;13.788;2023-02-12T07:28:02;7.30;;;6.60;;
15408;SDS011;7803;48.130;13.788;2023-02-12T07:31:07;8.68;;;7.10;;
15408;SDS011;7803;48.130;13.788;2023-02-12T07:34:10;6.82;;;6.22;;
15408;SDS011;7803;48.130;13.788;2023-02-12T07:37:14;7.65;;;6.68;;
15408;SDS011;7803;48.130;13.788;2023-02-12T07:40:21;7.28;;;6.57;;
15408;SDS011;7803;48.130;13.788;2023-02-12T07:43:23;6.75;;;6.15;;
15408;SDS011;7803;48.130;13.788;2023-02-12T07:46:26;7.07;;;6.38;;
15408;SDS011;7803;48.130;13.788;2023-02-12T07:49:30;7.72;;;6.43;;
15408;SDS011;7803;48.130;13.788;2023-02-12T07:52:34;6.90;;;6.30;;
15408;SDS011;7803;48.130;13.788;2023-02-12T07:55:36;6.53;;;5.93;;
15408;SDS011;7803;48.130;13.788;2023-02-12T07:58:38;6.95;;;6.32;;
15408;SDS011;7803;48.130;13.788;2023-02-12T08:01:42;6.32;;;5.72;;
15408;SDS011;7803;48.130;13.788;2023-02-12T08:04:46;7.30;;;5.85;;
15408;SDS011;7803;48.130;13.788;2023-02-12T08:07:50;6.53;;;5.93;;
15408;SDS011;7803;48.130;13.788;2023-02-12T08:10:54;6.57;;;5.93;;
15408;SDS011;7803;48.130;13.788;2023-02-12T08:13:56;6.25;;;5.63;;
15408;SDS011;7803;48.130;13.788;2023-02-12T08:16:59;6.35;;;5.68;;
15408;SDS011;7803;48.130;13.788;2023-02-12T08:20:01;5.80;;;5.20;;
15408;SDS011;7803;48.130;13.788;2023-02-12T08:23:04;7.53;;;5.85;;
15408;SDS011;7803;48.130;13.788;2023-02-12T08:26:07;5.95;;;5.35;;
15408;SDS011;7803;48.130;13.788;2023-02-12T08:29:12;6.05;;;5.13;;
15408;SDS011;7803;48.130;13.788;2023-02-12T08:32:15;7.00;;;5.15;;
15408;SDS011;7803;48.130;13.788;2023-02-12T08:35:18;8.10;;;5.30;;
15408;SDS011;7803;48.130;13.788;2023-02-12T08:38:21;6.68;;;5.70;;
15408;SDS011;7803;48.130;13.788;2023-02-12T08:41:24;5.32;;;4.82;;
15408;SDS011;7803;48.130;13.788;2023-02-12T08:44:28;5.50;;;5.00;;
15408;SDS011;7803;48.130;13.788;2023-02-12T08:47:30;6.25;;;5.25;;
15408;SDS011;7803;48.130;13.788;2023-02-12T08:50:32;5.43;;;4.80;;
15408;SDS011;7803;48.130;13.788;2023-02-12T08:53:36;6.88;;;5.00;;
15408;SDS011;7803;48.130;13.788;2023-02-12T08:56:40;5.40;;;4.90;;
15408;SDS011;7803;48.130;13.788;2023-02-12T08:59:44;5.63;;;5.00;;
15408;SDS011;7803;48.130;13.788;2023-02-12T09:02:48;5.43;;;4.50;;
15408;SDS011;7803;48.130;13.788;2023-02-12T09:05:50;5.00;;;4.50;;
15408;SDS011;7803;48.130;13.788;2023-02-12T09:08:54;10.63;;;4.85;;
15408;SDS011;7803;48.130;13.788;2023-02-12T09:11:56;6.55;;;4.97;;
15408;SDS011;7803;48.130;13.788;2023-02-12T09:14:58;4.93;;;4.43;;
15408;SDS011;7803;48.130;13.788;2023-02-12T09:18:00;5.68;;;4.55;;
15408;SDS011;7803;48.130;13.788;2023-02-12T09:21:04;5.13;;;4.47;;
15408;SDS011;7803;48.130;13.788;2023-02-12T09:24:09;5.00;;;4.45;;
15408;SDS011;7803;48.130;13.788;2023-02-12T09:27:11;7.70;;;4.80;;
15408;SDS011;7803;48.130;13.788;2023-02-12T09:30:13;6.85;;;4.70;;
15408;SDS011;7803;48.130;13.788;2023-02-12T09:33:16;4.97;;;4.40;;
15408;SDS011;7803;48.130;13.788;2023-02-12T09:36:18;5.50;;;4.63;;
15408;SDS011;7803;48.130;13.788;2023-02-12T09:39:22;5.43;;;4.50;;
15408;SDS011;7803;48.130;13.788;2023-02-12T09:42:29;5.18;;;4.35;;
15408;SDS011;7803;48.130;13.788;2023-02-12T09:45:46;4.82;;;3.95;;
15408;SDS011;7803;48.130;13.788;2023-02-12T09:48:58;4.75;;;4.25;;
15408;SDS011;7803;48.130;13.788;2023-02-12T09:52:05;6.20;;;4.72;;
15408;SDS011;7803;48.130;13.788;2023-02-12T09:55:15;7.13;;;4.85;;
15408;SDS011;7803;48.130;13.788;2023-02-12T09:58:20;19.35;;;8.60;;
15408;SDS011;7803;48.130;13.788;2023-02-12T10:01:29;20.13;;;9.88;;
15408;SDS011;7803;48.130;13.788;2023-02-12T10:04:31;10.40;;;6.32;;
15408;SDS011;7803;48.130;13.788;2023-02-12T10:07:37;10.82;;;6.57;;
15408;SDS011;7803;48.130;13.788;2023-02-12T10:11:18;10.02;;;6.18;;
15408;SDS011;7803;48.130;13.788;2023-02-12T10:14:33;9.93;;;6.05;;
15408;SDS011;7803;48.130;13.788;2023-02-12T10:17:55;8.30;;;5.80;;
15408;SDS011;7803;48.130;13.788;2023-02-12T10:21:10;12.43;;;5.82;;
15408;SDS011;7803;48.130;13.788;2023-02-12T10:24:22;8.88;;;5.80;;
15408;SDS011;7803;48.130;13.788;2023-02-12T10:27:38;10.98;;;6.07;;
15408;SDS011;7803;48.130;13.788;2023-02-12T10:30:44;9.68;;;5.97;;
15408;SDS011;7803;48.130;13.788;2023-02-12T10:33:49;8.50;;;5.38;;
15408;SDS011;7803;48.130;13.788;2023-02-12T10:36:55;9.70;;;5.78;;
15408;SDS011;7803;48.130;13.788;2023-02-12T10:40:03;8.40;;;5.95;;
15408;SDS011;7803;48.130;13.788;2023-02-12T10:43:15;9.90;;;6.10;;
15408;SDS011;7803;48.130;13.788;2023-02-12T10:46:18;9.07;;;5.22;;
15408;SDS011;7803;48.130;13.788;2023-02-12T10:49:20;9.60;;;5.88;;
15408;SDS011;7803;48.130;13.788;2023-02-12T10:52:27;8.95;;;6.03;;
15408;SDS011;7803;48.130;13.788;2023-02-12T10:55:36;10.02;;;5.97;;
15408;SDS011;7803;48.130;13.788;2023-02-12T10:58:41;11.45;;;6.45;;
15408;SDS011;7803;48.130;13.788;2023-02-12T11:01:51;8.57;;;6.80;;
15408;SDS011;7803;48.130;13.788;2023-02-12T11:04:54;9.88;;;7.15;;
15408;SDS011;7803;48.130;13.788;2023-02-12T11:07:58;10.73;;;7.10;;
15408;SDS011;7803;48.130;13.788;2023-02-12T11:11:02;13.40;;;7.20;;
15408;SDS011;7803;48.130;13.788;2023-02-12T11:14:14;10.55;;;7.00;;
15408;SDS011;7803;48.130;13.788;2023-02-12T11:17:21;10.88;;;7.43;;
15408;SDS011;7803;48.130;13.788;2023-02-12T11:20:27;12.00;;;7.40;;
15408;SDS011;7803;48.130;13.788;2023-02-12T11:23:32;13.93;;;7.70;;
15408;SDS011;7803;48.130;13.788;2023-02-12T11:26:37;13.70;;;8.52;;
15408;SDS011;7803;48.130;13.788;2023-02-12T11:29:41;15.05;;;8.55;;
15408;SDS011;7803;48.130;13.788;2023-02-12T11:32:44;17.30;;;8.98;;
15408;SDS011;7803;48.130;13.788;2023-02-12T11:35:49;23.42;;;9.30;;
15408;SDS011;7803;48.130;13.788;2023-02-12T11:38:54;16.88;;;9.38;;
15408;SDS011;7803;48.130;13.788;2023-02-12T11:41:58;16.95;;;9.48;;
15408;SDS011;7803;48.130;13.788;2023-02-12T11:45:05;17.85;;;9.23;;
15408;SDS011;7803;48.130;13.788;2023-02-12T11:48:18;17.05;;;9.52;;
15408;SDS011;7803;48.130;13.788;2023-02-12T11:51:24;18.08;;;10.15;;
15408;SDS011;7803;48.130;13.788;2023-02-12T11:54:30;19.00;;;10.30;;
15408;SDS011;7803;48.130;13.788;2023-02-12T11:57:36;18.67;;;10.32;;
15408;SDS011;7803;48.130;13.788;2023-02-12T12:00:48;17.48;;;9.98;;
15408;SDS011;7803;48.130;13.788;2023-02-12T12:03:56;16.65;;;10.30;;
15408;SDS011;7803;48.130;13.788;2023-02-12T12:07:04;17.30;;;9.98;;
15408;SDS011;7803;48.130;13.788;2023-02-12T12:10:16;16.10;;;9.75;;
15408;SDS011;7803;48.130;13.788;2023-02-12T12:13:27;16.52;;;9.93;;
15408;SDS011;7803;48.130;13.788;2023-02-12T12:16:37;16.42;;;9.55;;
15408;SDS011;7803;48.130;13.788;2023-02-12T12:20:03;15.18;;;10.27;;
15408;SDS011;7803;48.130;13.788;2023-02-12T12:23:12;16.25;;;9.88;;
15408;SDS011;7803;48.130;13.788;2023-02-12T12:26:20;15.13;;;9.80;;
15408;SDS011;7803;48.130;13.788;2023-02-12T12:29:26;15.23;;;9.50;;
15408;SDS011;7803;48.130;13.788;2023-02-12T12:32:43;15.70;;;10.05;;
15408;SDS011;7803;48.130;13.788;2023-02-12T12:35:53;16.13;;;10.38;;
15408;SDS011;7803;48.130;13.788;2023-02-12T12:39:06;14.13;;;9.80;;
15408;SDS011;7803;48.130;13.788;2023-02-12T12:42:30;15.65;;;9.93;;
15408;SDS011;7803;48.130;13.788;2023-02-12T12:49:36;16.25;;;9.68;;
15408;SDS011;7803;48.130;13.788;2023-02-12T12:52:56;13.07;;;9.60;;
15408;SDS011;7803;48.130;13.788;2023-02-12T12:56:13;14.27;;;9.52;;
15408;SDS011;7803;48.130;13.788;2023-02-12T13:03:04;13.35;;;9.38;;
15408;SDS011;7803;48.130;13.788;2023-02-12T13:06:33;12.48;;;9.82;;
15408;SDS011;7803;48.130;13.788;2023-02-12T13:09:54;12.55;;;9.68;;
15408;SDS011;7803;48.130;13.788;2023-02-12T13:13:05;12.57;;;9.43;;
15408;SDS011;7803;48.130;13.788;2023-02-12T13:16:18;12.70;;;9.55;;
15408;SDS011;7803;48.130;13.788;2023-02-12T13:19:31;12.13;;;9.30;;
15408;SDS011;7803;48.130;13.788;2023-02-12T13:22:45;13.30;;;9.20;;
15408;SDS011;7803;48.130;13.788;2023-02-12T13:25:54;10.60;;;8.82;;
15408;SDS011;7803;48.130;13.788;2023-02-12T13:29:05;10.32;;;9.23;;
15408;SDS011;7803;48.130;13.788;2023-02-12T13:32:14;14.60;;;9.85;;
15408;SDS011;7803;48.130;13.788;2023-02-12T13:35:23;10.18;;;8.63;;
15408;SDS011;7803;48.130;13.788;2023-02-12T13:38:31;12.10;;;8.93;;
15408;SDS011;7803;48.130;13.788;2023-02-12T13:41:37;12.18;;;9.75;;
15408;SDS011;7803;48.130;13.788;2023-02-12T13:44:44;11.43;;;9.75;;
15408;SDS011;7803;48.130;13.788;2023-02-12T13:48:02;11.65;;;9.15;;
15408;SDS011;7803;48.130;13.788;2023-02-12T13:51:35;9.90;;;8.75;;
15408;SDS011;7803;48.130;13.788;2023-02-12T13:54:47;10.45;;;9.10;;
15408;SDS011;7803;48.130;13.788;2023-02-12T14:01:40;10.95;;;9.70;;
15408;SDS011;7803;48.130;13.788;2023-02-12T14:04:46;12.57;;;9.43;;
15408;SDS011;7803;48.130;13.788;2023-02-12T14:08:00;11.23;;;9.23;;
15408;SDS011;7803;48.130;13.788;2023-02-12T14:11:08;12.07;;;9.70;;
15408;SDS011;7803;48.130;13.788;2023-02-12T14:14:15;11.32;;;9.02;;
15408;SDS011;7803;48.130;13.788;2023-02-12T14:17:40;11.30;;;9.45;;
15408;SDS011;7803;48.130;13.788;2023-02-12T14:27:56;11.75;;;9.43;;
15408;SDS011;7803;48.130;13.788;2023-02-12T14:31:19;10.93;;;9.30;;
15408;SDS011;7803;48.130;13.788;2023-02-12T14:34:41;11.10;;;9.20;;
15408;SDS011;7803;48.130;13.788;2023-02-12T14:37:44;10.95;;;8.77;;
15408;SDS011;7803;48.130;13.788;2023-02-12T14:40:48;13.32;;;9.07;;
15408;SDS011;7803;48.130;13.788;2023-02-12T14:44:01;11.13;;;8.50;;
15408;SDS011;7803;48.130;13.788;2023-02-12T14:47:49;10.00;;;9.00;;
15408;SDS011;7803;48.130;13.788;2023-02-12T14:50:57;10.60;;;8.82;;
15408;SDS011;7803;48.130;13.788;2023-02-12T14:54:03;10.55;;;8.82;;
15408;SDS011;7803;48.130;13.788;2023-02-12T14:57:11;10.93;;;8.90;;
15408;SDS011;7803;48.130;13.788;2023-02-12T15:00:27;11.32;;;9.18;;
15408;SDS011;7803;48.130;13.788;2023-02-12T15:03:38;10.30;;;9.20;;
15408;SDS011;7803;48.130;13.788;2023-02-12T15:06:47;10.90;;;9.10;;
15408;SDS011;7803;48.130;13.788;2023-02-12T15:09:54;9.00;;;7.85;;
15408;SDS011;7803;48.130;13.788;2023-02-12T15:13:12;10.52;;;8.95;;
15408;SDS011;7803;48.130;13.788;2023-02-12T15:16:23;10.13;;;8.95;;
15408;SDS011;7803;48.130;13.788;2023-02-12T15:19:37;9.40;;;8.35;;
15408;SDS011;7803;48.130;13.788;2023-02-12T15:22:43;10.27;;;8.70;;
15408;SDS011;7803;48.130;13.788;2023-02-12T15:25:46;9.15;;;7.90;;
15408;SDS011;7803;48.130;13.788;2023-02-12T15:28:52;8.57;;;7.75;;
15408;SDS011;7803;48.130;13.788;2023-02-12T15:31:57;9.50;;;8.18;;
15408;SDS011;7803;48.130;13.788;2023-02-12T15:35:02;9.73;;;8.73;;
15408;SDS011;7803;48.130;13.788;2023-02-12T15:38:06;8.95;;;8.05;;
15408;SDS011;7803;48.130;13.788;2023-02-12T15:41:24;9.10;;;8.20;;
15408;SDS011;7803;48.130;13.788;2023-02-12T15:44:34;9.48;;;8.43;;
15408;SDS011;7803;48.130;13.788;2023-02-12T15:47:39;9.60;;;8.40;;
15408;SDS011;7803;48.130;13.788;2023-02-12T15:50:47;8.70;;;7.80;;
15408;SDS011;7803;48.130;13.788;2023-02-12T15:53:53;9.45;;;7.97;;
15408;SDS011;7803;48.130;13.788;2023-02-12T15:56:57;9.60;;;8.60;;
15408;SDS011;7803;48.130;13.788;2023-02-12T16:00:03;8.48;;;7.68;;
15408;SDS011;7803;48.130;13.788;2023-02-12T16:03:18;9.52;;;7.88;;
15408;SDS011;7803;48.130;13.788;2023-02-12T16:06:22;8.10;;;7.30;;
15408;SDS011;7803;48.130;13.788;2023-02-12T16:09:29;8.75;;;7.85;;
15408;SDS011;7803;48.130;13.788;2023-02-12T16:12:34;8.05;;;7.25;;
15408;SDS011;7803;48.130;13.788;2023-02-12T16:15:38;8.82;;;7.85;;
15408;SDS011;7803;48.130;13.788;2023-02-12T16:18:45;8.80;;;7.85;;
15408;SDS011;7803;48.130;13.788;2023-02-12T16:22:05;8.15;;;7.25;;
15408;SDS011;7803;48.130;13.788;2023-02-12T16:25:14;8.77;;;7.88;;
15408;SDS011;7803;48.130;13.788;2023-02-12T16:28:22;8.27;;;7.47;;
15408;SDS011;7803;48.130;13.788;2023-02-12T16:31:28;8.38;;;7.35;;
15408;SDS011;7803;48.130;13.788;2023-02-12T16:34:36;7.80;;;7.00;;
15408;SDS011;7803;48.130;13.788;2023-02-12T16:37:41;7.55;;;6.82;;
15408;SDS011;7803;48.130;13.788;2023-02-12T16:41:12;8.60;;;7.40;;
15408;SDS011;7803;48.130;13.788;2023-02-12T16:44:24;9.50;;;7.03;;
15408;SDS011;7803;48.130;13.788;2023-02-12T16:47:30;8.57;;;6.85;;
15408;SDS011;7803;48.130;13.788;2023-02-12T16:50:35;7.57;;;6.57;;
15408;SDS011;7803;48.130;13.788;2023-02-12T16:53:43;7.80;;;7.00;;
15408;SDS011;7803;48.130;13.788;2023-02-12T16:56:53;8.05;;;6.88;;
15408;SDS011;7803;48.130;13.788;2023-02-12T16:59:56;7.53;;;6.72;;
15408;SDS011;7803;48.130;13.788;2023-02-12T17:02:59;8.30;;;6.40;;
15408;SDS011;7803;48.130;13.788;2023-02-12T17:06:04;8.00;;;6.32;;
15408;SDS011;7803;48.130;13.788;2023-02-12T17:09:10;6.97;;;6.28;;
15408;SDS011;7803;48.130;13.788;2023-02-12T17:12:13;7.82;;;6.53;;
15408;SDS011;7803;48.130;13.788;2023-02-12T17:15:18;6.93;;;6.20;;
15408;SDS011;7803;48.130;13.788;2023-02-12T17:18:23;7.38;;;6.30;;
15408;SDS011;7803;48.130;13.788;2023-02-12T17:21:32;6.95;;;6.25;;
15408;SDS011;7803;48.130;13.788;2023-02-12T17:24:38;10.70;;;6.22;;
15408;SDS011;7803;48.130;13.788;2023-02-12T17:27:41;7.80;;;6.30;;
15408;SDS011;7803;48.130;13.788;2023-02-12T17:30:45;6.30;;;5.57;;
15408;SDS011;7803;48.130;13.788;2023-02-12T17:33:49;7.15;;;6.05;;
15408;SDS011;7803;48.130;13.788;2023-02-12T17:36:53;6.38;;;5.70;;
15408;SDS011;7803;48.130;13.788;2023-02-12T17:39:56;6.13;;;5.60;;
15408;SDS011;7803;48.130;13.788;2023-02-12T17:43:01;6.40;;;5.80;;
15408;SDS011;7803;48.130;13.788;2023-02-12T17:46:07;6.68;;;5.97;;
15408;SDS011;7803;48.130;13.788;2023-02-12T17:49:13;6.93;;;5.80;;
15408;SDS011;7803;48.130;13.788;2023-02-12T17:52:18;6.95;;;5.47;;
15408;SDS011;7803;48.130;13.788;2023-02-12T17:55:20;7.03;;;6.03;;
15408;SDS011;7803;48.130;13.788;2023-02-12T17:58:23;6.70;;;5.40;;
15408;SDS011;7803;48.130;13.788;2023-02-12T18:01:27;5.97;;;5.47;;
15408;SDS011;7803;48.130;13.788;2023-02-12T18:04:30;6.47;;;5.60;;
15408;SDS011;7803;48.130;13.788;2023-02-12T18:07:37;6.50;;;5.28;;
15408;SDS011;7803;48.130;13.788;2023-02-12T18:10:42;6.05;;;5.50;;
15408;SDS011;7803;48.130;13.788;2023-02-12T18:13:46;6.50;;;5.40;;
15408;SDS011;7803;48.130;13.788;2023-02-12T18:16:52;6.95;;;5.57;;
15408;SDS011;7803;48.130;13.788;2023-02-12T18:19:56;6.35;;;5.70;;
15408;SDS011;7803;48.130;13.788;2023-02-12T18:23:01;6.43;;;5.75;;
15408;SDS011;7803;48.130;13.788;2023-02-12T18:26:06;5.75;;;5.07;;
15408;SDS011;7803;48.130;13.788;2023-02-12T18:29:10;5.68;;;5.00;;
15408;SDS011;7803;48.130;13.788;2023-02-12T18:32:14;6.13;;;5.20;;
15408;SDS011;7803;48.130;13.788;2023-02-12T18:35:17;5.70;;;5.13;;
15408;SDS011;7803;48.130;13.788;2023-02-12T18:38:22;5.55;;;5.05;;
15408;SDS011;7803;48.130;13.788;2023-02-12T18:41:25;5.20;;;4.70;;
15408;SDS011;7803;48.130;13.788;2023-02-12T18:44:30;6.82;;;5.43;;
15408;SDS011;7803;48.130;13.788;2023-02-12T18:47:35;5.90;;;4.97;;
15408;SDS011;7803;48.130;13.788;2023-02-12T18:50:39;5.55;;;4.93;;
15408;SDS011;7803;48.130;13.788;2023-02-12T18:53:49;5.13;;;4.63;;
15408;SDS011;7803;48.130;13.788;2023-02-12T18:56:57;5.68;;;4.70;;
15408;SDS011;7803;48.130;13.788;2023-02-12T19:00:00;5.00;;;4.50;;
15408;SDS011;7803;48.130;13.788;2023-02-12T19:03:05;5.20;;;4.65;;
15408;SDS011;7803;48.130;13.788;2023-02-12T19:06:09;5.38;;;4.55;;
15408;SDS011;7803;48.130;13.788;2023-02-12T19:09:15;5.70;;;4.50;;
15408;SDS011;7803;48.130;13.788;2023-02-12T19:12:19;5.15;;;4.65;;
15408;SDS011;7803;48.130;13.788;2023-02-12T19:15:25;4.90;;;4.50;;
15408;SDS011;7803;48.130;13.788;2023-02-12T19:18:30;5.13;;;4.63;;
15408;SDS011;7803;48.130;13.788;2023-02-12T19:21:33;6.25;;;4.30;;
15408;SDS011;7803;48.130;13.788;2023-02-12T19:24:39;5.30;;;4.80;;
15408;SDS011;7803;48.130;13.788;2023-02-12T19:27:42;5.63;;;4.32;;
15408;SDS011;7803;48.130;13.788;2023-02-12T19:30:46;4.82;;;4.32;;
15408;SDS011;7803;48.130;13.788;2023-02-12T19:33:53;5.75;;;4.40;;
15408;SDS011;7803;48.130;13.788;2023-02-12T19:36:57;4.72;;;4.30;;
15408;SDS011;7803;48.130;13.788;2023-02-12T19:40:04;5.05;;;4.55;;
15408;SDS011;7803;48.130;13.788;2023-02-12T19:43:10;6.03;;;4.78;;
15408;SDS011;7803;48.130;13.788;2023-02-12T19:46:14;5.22;;;4.70;;
15408;SDS011;7803;48.130;13.788;2023-02-12T19:49:20;5.00;;;4.50;;
15408;SDS011;7803;48.130;13.788;2023-02-12T19:52:24;6.50;;;5.40;;
15408;SDS011;7803;48.130;13.788;2023-02-12T19:55:29;6.20;;;5.57;;
15408;SDS011;7803;48.130;13.788;2023-02-12T19:58:36;5.93;;;5.43;;
15408;SDS011;7803;48.130;13.788;2023-02-12T20:01:39;5.80;;;5.30;;
15408;SDS011;7803;48.130;13.788;2023-02-12T20:04:44;5.90;;;5.40;;
15408;SDS011;7803;48.130;13.788;2023-02-12T20:07:47;5.78;;;5.28;;
15408;SDS011;7803;48.130;13.788;2023-02-12T20:10:53;6.00;;;5.50;;
15408;SDS011;7803;48.130;13.788;2023-02-12T20:13:57;6.22;;;5.60;;
15408;SDS011;7803;48.130;13.788;2023-02-12T20:17:04;6.40;;;5.80;;
15408;SDS011;7803;48.130;13.788;2023-02-12T20:20:09;6.05;;;5.50;;
15408;SDS011;7803;48.130;13.788;2023-02-12T20:23:15;6.32;;;5.72;;
15408;SDS011;7803;48.130;13.788;2023-02-12T20:26:21;6.15;;;5.55;;
15408;SDS011;7803;48.130;13.788;2023-02-12T20:29:26;6.57;;;5.97;;
15408;SDS011;7803;48.130;13.788;2023-02-12T20:32:29;6.22;;;5.72;;
15408;SDS011;7803;48.130;13.788;2023-02-12T20:35:35;6.35;;;5.70;;
15408;SDS011;7803;48.130;13.788;2023-02-12T20:38:40;6.80;;;6.20;;
15408;SDS011;7803;48.130;13.788;2023-02-12T20:41:48;6.20;;;5.60;;
15408;SDS011;7803;48.130;13.788;2023-02-12T20:44:54;6.43;;;5.80;;
15408;SDS011;7803;48.130;13.788;2023-02-12T20:47:58;6.53;;;5.93;;
15408;SDS011;7803;48.130;13.788;2023-02-12T20:51:02;6.45;;;5.85;;
15408;SDS011;7803;48.130;13.788;2023-02-12T20:54:05;6.50;;;6.00;;
15408;SDS011;7803;48.130;13.788;2023-02-12T20:57:11;6.88;;;6.28;;
15408;SDS011;7803;48.130;13.788;2023-02-12T21:00:14;6.78;;;6.18;;
15408;SDS011;7803;48.130;13.788;2023-02-12T21:03:18;6.82;;;6.20;;
15408;SDS011;7803;48.130;13.788;2023-02-12T21:06:22;7.50;;;6.88;;
15408;SDS011;7803;48.130;13.788;2023-02-12T21:09:34;7.18;;;6.53;;
15408;SDS011;7803;48.130;13.788;2023-02-12T21:12:38;7.72;;;7.03;;
15408;SDS011;7803;48.130;13.788;2023-02-12T21:15:41;8.25;;;7.50;;
15408;SDS011;7803;48.130;13.788;2023-02-12T21:18:45;7.80;;;7.10;;
15408;SDS011;7803;48.130;13.788;2023-02-12T21:21:51;8.13;;;7.40;;
15408;SDS011;7803;48.130;13.788;2023-02-12T21:24:54;8.23;;;7.50;;
15408;SDS011;7803;48.130;13.788;2023-02-12T21:27:58;8.60;;;7.80;;
15408;SDS011;7803;48.130;13.788;2023-02-12T21:31:04;9.45;;;8.55;;
15408;SDS011;7803;48.130;13.788;2023-02-12T21:34:10;9.50;;;8.60;;
15408;SDS011;7803;48.130;13.788;2023-02-12T21:37:15;9.75;;;8.85;;
15408;SDS011;7803;48.130;13.788;2023-02-12T21:40:17;10.70;;;9.70;;
15408;SDS011;7803;48.130;13.788;2023-02-12T21:43:23;9.73;;;8.82;;
15408;SDS011;7803;48.130;13.788;2023-02-12T21:46:25;10.07;;;9.18;;
15408;SDS011;7803;48.130;13.788;2023-02-12T21:49:28;10.63;;;9.60;;
15408;SDS011;7803;48.130;13.788;2023-02-12T21:52:31;11.02;;;9.88;;
15408;SDS011;7803;48.130;13.788;2023-02-12T21:55:34;11.35;;;10.23;;
15408;SDS011;7803;48.130;13.788;2023-02-12T21:58:38;11.57;;;10.43;;
15408;SDS011;7803;48.130;13.788;2023-02-12T22:01:42;11.40;;;10.30;;
15408;SDS011;7803;48.130;13.788;2023-02-12T22:04:45;11.63;;;10.52;;
15408;SDS011;7803;48.130;13.788;2023-02-12T22:07:48;12.07;;;10.98;;
15408;SDS011;7803;48.130;13.788;2023-02-12T22:10:50;10.25;;;9.25;;
15408;SDS011;7803;48.130;13.788;2023-02-12T22:13:54;10.02;;;9.02;;
15408;SDS011;7803;48.130;13.788;2023-02-12T22:16:56;9.52;;;8.57;;
15408;SDS011;7803;48.130;13.788;2023-02-12T22:19:58;10.88;;;9.88;;
15408;SDS011;7803;48.130;13.788;2023-02-12T22:23:00;11.20;;;10.10;;
15408;SDS011;7803;48.130;13.788;2023-02-12T22:26:03;10.85;;;9.85;;
15408;SDS011;7803;48.130;13.788;2023-02-12T22:29:08;11.45;;;10.35;;
15408;SDS011;7803;48.130;13.788;2023-02-12T22:32:11;11.68;;;10.57;;
15408;SDS011;7803;48.130;13.788;2023-02-12T22:35:13;11.80;;;10.60;;
15408;SDS011;7803;48.130;13.788;2023-02-12T22:38:15;11.35;;;10.25;;
15408;SDS011;7803;48.130;13.788;2023-02-12T22:41:17;11.48;;;10.48;;
15408;SDS011;7803;48.130;13.788;2023-02-12T22:44:21;11.88;;;10.77;;
15408;SDS011;7803;48.130;13.788;2023-02-12T22:47:23;11.57;;;10.48;;
15408;SDS011;7803;48.130;13.788;2023-02-12T22:50:25;11.05;;;10.05;;
15408;SDS011;7803;48.130;13.788;2023-02-12T22:53:27;12.00;;;10.90;;
15408;SDS011;7803;48.130;13.788;2023-02-12T22:56:29;11.93;;;10.82;;
15408;SDS011;7803;48.130;13.788;2023-02-12T22:59:32;11.90;;;10.80;;
15408;SDS011;7803;48.130;13.788;2023-02-12T23:02:34;11.95;;;10.77;;
15408;SDS011;7803;48.130;13.788;2023-02-12T23:05:37;12.07;;;10.98;;
15408;SDS011;7803;48.130;13.788;2023-02-12T23:08:39;11.75;;;10.75;;
15408;SDS011;7803;48.130;13.788;2023-02-12T23:11:42;11.48;;;10.48;;
15408;SDS011;7803;48.130;13.788;2023-02-12T23:14:45;12.50;;;11.20;;
15408;SDS011;7803;48.130;13.788;2023-02-12T23:17:47;11.77;;;10.68;;
15408;SDS011;7803;48.130;13.788;2023-02-12T23:20:51;11.73;;;10.52;;
15408;SDS011;7803;48.130;13.788;2023-02-12T23:23:53;12.38;;;11.18;;
15408;SDS011;7803;48.130;13.788;2023-02-12T23:26:55;11.95;;;10.85;;
15408;SDS011;7803;48.130;13.788;2023-02-12T23:29:59;11.77;;;10.68;;
15408;SDS011;7803;48.130;13.788;2023-02-12T23:33:01;11.75;;;10.70;;
15408;SDS011;7803;48.130;13.788;2023-02-12T23:36:03;11.77;;;10.68;;
15408;SDS011;7803;48.130;13.788;2023-02-12T23:39:06;11.65;;;10.55;;
15408;SDS011;7803;48.130;13.788;2023-02-12T23:42:09;11.60;;;10.50;;
15408;SDS011;7803;48.130;13.788;2023-02-12T23:45:13;12.27;;;11.07;;
15408;SDS011;7803;48.130;13.788;2023-02-12T23:48:15;12.65;;;11.43;;
15408;SDS011;7803;48.130;13.788;2023-02-12T23:51:17;11.48;;;10.38;;
15408;SDS011;7803;48.130;13.788;2023-02-12T23:54:19;11.68;;;10.60;;
15408;SDS011;7803;48.130;13.788;2023-02-12T23:57:21;11.27;;;10.23;;
